createdAt,value
2018-02-25T00:00:21.974Z,-0.83
2018-02-25T00:01:21.858Z,-0.89
2018-02-25T00:02:21.786Z,-0.74
2018-02-25T00:03:21.716Z,-0.81
2018-02-25T00:04:21.653Z,-0.76
2018-02-25T00:05:21.536Z,-0.70
2018-02-25T00:06:21.446Z,-0.77
2018-02-25T00:07:21.390Z,-0.71
2018-02-25T00:08:21.309Z,-0.68
2018-02-25T00:09:21.189Z,-0.71
2018-02-25T00:10:21.113Z,-0.70
2018-02-25T00:11:21.021Z,-0.73
2018-02-25T00:12:20.951Z,-0.73
2018-02-25T00:13:20.844Z,-0.65
2018-02-25T00:14:20.897Z,-0.73
2018-02-25T00:15:20.669Z,-0.68
2018-02-25T00:16:20.620Z,-0.76
2018-02-25T00:17:20.512Z,-0.74
2018-02-25T00:18:20.495Z,-0.76
2018-02-25T00:19:20.348Z,-0.85
2018-02-25T00:20:20.261Z,-0.92
2018-02-25T00:21:20.178Z,-0.86
2018-02-25T00:22:20.090Z,-0.85
2018-02-25T00:23:19.987Z,-0.80
2018-02-25T00:24:19.942Z,-0.78
2018-02-25T00:25:19.825Z,-0.95
2018-02-25T00:26:19.749Z,-0.96
2018-02-25T00:27:19.660Z,-0.96
2018-02-25T00:28:19.576Z,-0.96
2018-02-25T00:29:19.508Z,-0.95
2018-02-25T00:30:19.422Z,-0.96
2018-02-25T00:31:19.311Z,-0.92
2018-02-25T00:32:19.237Z,-0.95
2018-02-25T00:33:19.131Z,-1.00
2018-02-25T00:34:19.084Z,-0.99
2018-02-25T00:35:18.973Z,-0.90
2018-02-25T00:36:18.897Z,-1.02
2018-02-25T00:37:18.800Z,-1.03
2018-02-25T00:38:18.731Z,-0.92
2018-02-25T00:39:18.647Z,-0.99
2018-02-25T00:40:18.564Z,-0.89
2018-02-25T00:41:18.477Z,-0.89
2018-02-25T00:42:18.407Z,-0.99
2018-02-25T00:43:18.287Z,-1.05
2018-02-25T00:44:18.260Z,-1.03
2018-02-25T00:45:18.129Z,-0.97
2018-02-25T00:46:18.062Z,-0.97
2018-02-25T00:47:17.944Z,-0.92
2018-02-25T00:48:17.875Z,-0.95
2018-02-25T00:49:17.777Z,-0.92
2018-02-25T00:50:17.713Z,-1.05
2018-02-25T00:51:17.624Z,-0.89
2018-02-25T00:52:17.527Z,-0.83
2018-02-25T00:53:17.428Z,-0.86
2018-02-25T00:54:17.365Z,-0.90
2018-02-25T00:55:17.263Z,-0.95
2018-02-25T00:56:17.211Z,-1.03
2018-02-25T00:57:17.086Z,-1.11
2018-02-25T00:58:17.017Z,-1.23
2018-02-25T00:59:16.927Z,-1.13
2018-02-25T01:00:16.866Z,-1.17
2018-02-25T01:01:16.786Z,-1.08
2018-02-25T01:02:16.670Z,-1.07
2018-02-25T01:03:16.578Z,-1.05
2018-02-25T01:04:16.602Z,-1.15
2018-02-25T01:05:16.425Z,-1.05
2018-02-25T01:06:16.365Z,-1.17
2018-02-25T01:07:16.237Z,-1.20
2018-02-25T01:08:16.164Z,-1.33
2018-02-25T01:09:16.068Z,-1.21
2018-02-25T01:10:15.998Z,-1.36
2018-02-25T01:11:15.918Z,-1.33
2018-02-25T01:12:15.841Z,-1.25
2018-02-25T01:13:15.739Z,-1.33
2018-02-25T01:14:16.072Z,-1.32
2018-02-25T01:15:15.561Z,-1.35
2018-02-25T01:16:15.510Z,-1.36
2018-02-25T01:17:15.393Z,-1.36
2018-02-25T01:18:15.317Z,-1.41
2018-02-25T01:19:15.215Z,-1.50
2018-02-25T01:20:15.143Z,-1.41
2018-02-25T01:21:15.066Z,-1.36
2018-02-25T01:22:14.985Z,-1.49
2018-02-25T01:23:14.886Z,-1.44
2018-02-25T01:24:14.809Z,-1.49
2018-02-25T01:25:14.697Z,-1.43
2018-02-25T01:26:14.628Z,-1.43
2018-02-25T01:27:14.559Z,-1.38
2018-02-25T01:28:14.477Z,-1.41
2018-02-25T01:29:14.363Z,-1.49
2018-02-25T01:30:14.304Z,-1.43
2018-02-25T01:31:14.187Z,-1.49
2018-02-25T01:32:14.141Z,-1.44
2018-02-25T01:33:14.020Z,-1.47
2018-02-25T01:34:14.575Z,-1.53
2018-02-25T01:35:13.847Z,-1.50
2018-02-25T01:36:13.781Z,-1.57
2018-02-25T01:37:13.688Z,-1.62
2018-02-25T01:38:13.624Z,-1.57
2018-02-25T01:39:13.505Z,-1.46
2018-02-25T01:40:13.464Z,-1.47
2018-02-25T01:41:13.339Z,-1.50
2018-02-25T01:42:13.260Z,-1.50
2018-02-25T01:43:13.178Z,-1.57
2018-02-25T01:44:13.090Z,-1.56
2018-02-25T01:45:12.999Z,-1.50
2018-02-25T01:46:12.926Z,-1.49
2018-02-25T01:47:12.837Z,-1.59
2018-02-25T01:48:12.784Z,-1.59
2018-02-25T01:49:12.648Z,-1.59
2018-02-25T01:50:12.579Z,-1.65
2018-02-25T01:51:12.489Z,-1.64
2018-02-25T01:52:12.401Z,-1.64
2018-02-25T01:53:12.321Z,-1.65
2018-02-25T01:54:13.075Z,-1.71
2018-02-25T01:55:12.132Z,-1.72
2018-02-25T01:56:12.062Z,-1.72
2018-02-25T01:57:11.971Z,-1.68
2018-02-25T01:58:11.908Z,-1.70
2018-02-25T01:59:11.808Z,-1.68
2018-02-25T02:00:11.721Z,-1.70
2018-02-25T02:01:11.619Z,-1.72
2018-02-25T02:02:11.552Z,-1.72
2018-02-25T02:03:11.450Z,-1.74
2018-02-25T02:04:11.424Z,-1.80
2018-02-25T02:05:11.279Z,-1.78
2018-02-25T02:06:11.208Z,-1.68
2018-02-25T02:07:11.122Z,-1.74
2018-02-25T02:08:11.045Z,-1.89
2018-02-25T02:09:10.958Z,-1.86
2018-02-25T02:10:10.862Z,-1.90
2018-02-25T02:11:10.764Z,-1.80
2018-02-25T02:12:10.695Z,-1.82
2018-02-25T02:13:10.589Z,-1.77
2018-02-25T02:14:10.540Z,-1.86
2018-02-25T02:15:10.432Z,-1.95
2018-02-25T02:16:10.357Z,-1.96
2018-02-25T02:17:10.248Z,-2.01
2018-02-25T02:18:10.177Z,-1.93
2018-02-25T02:19:10.106Z,-2.00
2018-02-25T02:20:10.008Z,-2.01
2018-02-25T02:21:09.937Z,-1.90
2018-02-25T02:22:09.826Z,-2.01
2018-02-25T02:23:09.734Z,-1.96
2018-02-25T02:24:09.776Z,-2.00
2018-02-25T02:25:09.557Z,-1.90
2018-02-25T02:26:09.482Z,-1.86
2018-02-25T02:27:09.391Z,-2.00
2018-02-25T02:28:09.313Z,-2.00
2018-02-25T02:29:09.275Z,-2.00
2018-02-25T02:30:09.144Z,-1.88
2018-02-25T02:31:09.053Z,-1.98
2018-02-25T02:32:09.014Z,-2.03
2018-02-25T02:33:08.876Z,-2.04
2018-02-25T02:34:08.796Z,-1.95
2018-02-25T02:35:08.725Z,-1.95
2018-02-25T02:36:08.629Z,-1.95
2018-02-25T02:37:08.528Z,-2.04
2018-02-25T02:38:08.463Z,-1.95
2018-02-25T02:39:08.382Z,-2.04
2018-02-25T02:40:08.299Z,-2.00
2018-02-25T02:41:08.283Z,-2.00
2018-02-25T02:42:08.121Z,-1.95
2018-02-25T02:43:08.020Z,-2.10
2018-02-25T02:44:07.947Z,-2.08
2018-02-25T02:45:07.858Z,-2.01
2018-02-25T02:46:07.794Z,-2.08
2018-02-25T02:47:07.682Z,-2.10
2018-02-25T02:48:07.601Z,-2.14
2018-02-25T02:49:07.512Z,-2.32
2018-02-25T02:50:07.432Z,-2.18
2018-02-25T02:51:07.420Z,-2.14
2018-02-25T02:52:07.265Z,-2.22
2018-02-25T02:53:07.161Z,-2.18
2018-02-25T02:54:07.232Z,-2.10
2018-02-25T02:55:06.994Z,-2.16
2018-02-25T02:56:06.936Z,-2.04
2018-02-25T02:57:06.846Z,-2.19
2018-02-25T02:58:06.734Z,-2.10
2018-02-25T02:59:06.645Z,-2.19
2018-02-25T03:00:06.592Z,-2.10
2018-02-25T03:01:06.473Z,-2.08
2018-02-25T03:02:06.396Z,-2.16
2018-02-25T03:03:06.300Z,-2.08
2018-02-25T03:04:06.229Z,-2.08
2018-02-25T03:05:06.147Z,-2.14
2018-02-25T03:07:05.962Z,-2.26
2018-02-25T03:08:05.935Z,-2.32
2018-02-25T03:09:05.789Z,-2.26
2018-02-25T03:10:05.715Z,-2.22
2018-02-25T03:11:05.653Z,-2.18
2018-02-25T03:12:05.559Z,-2.28
2018-02-25T03:13:05.442Z,-2.24
2018-02-25T03:14:05.372Z,-2.28
2018-02-25T03:15:05.272Z,-2.19
2018-02-25T03:16:05.260Z,-2.26
2018-02-25T03:17:05.106Z,-2.29
2018-02-25T03:18:05.039Z,-2.33
2018-02-25T03:19:04.923Z,-2.29
2018-02-25T03:20:04.859Z,-2.43
2018-02-25T03:21:04.757Z,-2.40
2018-02-25T03:22:04.692Z,-2.33
2018-02-25T03:23:04.583Z,-2.41
2018-02-25T03:24:04.503Z,-2.44
2018-02-25T03:25:04.405Z,-2.43
2018-02-25T03:26:04.343Z,-2.35
2018-02-25T03:27:04.258Z,-2.29
2018-02-25T03:28:04.159Z,-2.44
2018-02-25T03:29:04.064Z,-2.41
2018-02-25T03:30:04.003Z,-2.41
2018-02-25T03:31:03.893Z,-2.47
2018-02-25T03:32:03.844Z,-2.61
2018-02-25T03:33:03.734Z,-2.62
2018-02-25T03:34:03.645Z,-2.64
2018-02-25T03:35:03.549Z,-2.55
2018-02-25T03:36:03.477Z,-2.61
2018-02-25T03:37:03.403Z,-2.51
2018-02-25T03:38:03.357Z,-2.53
2018-02-25T03:39:03.206Z,-2.50
2018-02-25T03:40:03.156Z,-2.64
2018-02-25T03:41:03.105Z,-2.59
2018-02-25T03:42:02.960Z,-2.56
2018-02-25T03:43:02.861Z,-2.51
2018-02-25T03:44:02.879Z,-2.53
2018-02-25T03:45:02.714Z,-2.58
2018-02-25T03:46:02.614Z,-2.55
2018-02-25T03:47:02.519Z,-2.48
2018-02-25T03:48:02.468Z,-2.53
2018-02-25T03:49:02.348Z,-2.55
2018-02-25T03:50:02.273Z,-2.53
2018-02-25T03:51:02.176Z,-2.53
2018-02-25T03:52:02.100Z,-2.58
2018-02-25T03:53:02.021Z,-2.59
2018-02-25T03:54:01.923Z,-2.56
2018-02-25T03:55:01.836Z,-2.65
2018-02-25T03:56:01.742Z,-2.71
2018-02-25T03:57:01.651Z,-2.66
2018-02-25T03:58:01.605Z,-2.76
2018-02-25T03:59:01.489Z,-2.79
2018-02-25T04:00:01.409Z,-2.69
2018-02-25T04:01:01.428Z,-2.66
2018-02-25T04:02:01.238Z,-2.66
2018-02-25T04:03:01.177Z,-2.79
2018-02-25T04:04:01.061Z,-2.76
2018-02-25T04:05:00.960Z,-2.69
2018-02-25T04:06:00.887Z,-2.71
2018-02-25T04:07:00.793Z,-2.74
2018-02-25T04:08:00.736Z,-2.66
2018-02-25T04:09:00.631Z,-2.79
2018-02-25T04:10:00.544Z,-2.71
2018-02-25T04:11:00.448Z,-2.72
2018-02-25T04:12:00.383Z,-2.65
2018-02-25T04:13:00.288Z,-2.64
2018-02-25T04:14:01.227Z,-2.64
2018-02-25T04:15:00.108Z,-2.76
2018-02-25T04:16:00.022Z,-2.79
2018-02-25T04:16:59.927Z,-2.71
2018-02-25T04:17:59.857Z,-2.76
2018-02-25T04:18:59.783Z,-2.62
2018-02-25T04:19:59.697Z,-2.66
2018-02-25T04:20:59.593Z,-2.76
2018-02-25T04:21:59.518Z,-2.69
2018-02-25T04:22:59.413Z,-2.64
2018-02-25T04:23:59.351Z,-2.72
2018-02-25T04:24:59.243Z,-2.69
2018-02-25T04:25:59.171Z,-2.80
2018-02-25T04:26:59.069Z,-2.77
2018-02-25T04:27:59.025Z,-2.93
2018-02-25T04:28:58.912Z,-2.74
2018-02-25T04:29:58.837Z,-2.90
2018-02-25T04:30:59.577Z,-2.83
2018-02-25T04:31:58.656Z,-2.84
2018-02-25T04:32:58.543Z,-2.80
2018-02-25T04:33:58.484Z,-2.86
2018-02-25T04:34:58.408Z,-2.76
2018-02-25T04:35:58.299Z,-2.77
2018-02-25T04:36:58.215Z,-2.80
2018-02-25T04:37:58.132Z,-2.79
2018-02-25T04:38:58.035Z,-2.74
2018-02-25T04:39:57.974Z,-2.93
2018-02-25T04:40:57.876Z,-2.79
2018-02-25T04:41:57.790Z,-2.66
2018-02-25T04:42:57.682Z,-2.80
2018-02-25T04:43:57.618Z,-2.79
2018-02-25T04:44:57.603Z,-2.83
2018-02-25T04:45:57.463Z,-2.89
2018-02-25T04:46:57.376Z,-2.95
2018-02-25T04:47:57.286Z,-3.01
2018-02-25T04:48:57.174Z,-3.04
2018-02-25T04:49:57.102Z,-3.00
2018-02-25T04:50:57.035Z,-3.07
2018-02-25T04:51:56.929Z,-3.12
2018-02-25T04:52:56.841Z,-3.13
2018-02-25T04:53:56.745Z,-3.02
2018-02-25T04:54:56.658Z,-3.01
2018-02-25T04:55:56.578Z,-2.98
2018-02-25T04:56:56.497Z,-3.01
2018-02-25T04:57:56.434Z,-3.08
2018-02-25T04:58:56.302Z,-2.82
2018-02-25T04:59:56.229Z,-2.56
2018-02-25T05:00:56.173Z,-2.61
2018-02-25T05:01:56.084Z,-2.51
2018-02-25T05:02:55.957Z,-2.58
2018-02-25T05:03:55.887Z,-2.76
2018-02-25T05:04:55.782Z,-2.80
2018-02-25T05:05:55.726Z,-2.62
2018-02-25T05:06:55.627Z,-2.48
2018-02-25T05:07:55.538Z,-2.62
2018-02-25T05:08:55.437Z,-2.62
2018-02-25T05:09:55.363Z,-2.76
2018-02-25T05:10:55.266Z,-2.77
2018-02-25T05:11:55.280Z,-2.94
2018-02-25T05:12:55.094Z,-2.95
2018-02-25T05:13:55.021Z,-3.10
2018-02-25T05:14:55.049Z,-3.08
2018-02-25T05:15:54.854Z,-3.10
2018-02-25T05:16:54.767Z,-3.26
2018-02-25T05:17:54.674Z,-3.15
2018-02-25T05:18:54.585Z,-3.22
2018-02-25T05:19:54.507Z,-3.16
2018-02-25T05:20:54.400Z,-3.25
2018-02-25T05:21:54.347Z,-3.21
2018-02-25T05:22:54.248Z,-3.26
2018-02-25T05:23:54.157Z,-3.25
2018-02-25T05:24:54.062Z,-3.07
2018-02-25T05:25:53.988Z,-3.13
2018-02-25T05:26:53.881Z,-3.16
2018-02-25T05:27:53.827Z,-3.12
2018-02-25T05:28:53.714Z,-3.16
2018-02-25T05:29:53.632Z,-3.16
2018-02-25T05:30:53.542Z,-3.15
2018-02-25T05:31:53.557Z,-3.16
2018-02-25T05:32:53.383Z,-3.25
2018-02-25T05:33:53.284Z,-3.28
2018-02-25T05:34:53.192Z,-3.22
2018-02-25T05:35:53.121Z,-3.25
2018-02-25T05:36:53.025Z,-3.16
2018-02-25T05:37:52.961Z,-3.23
2018-02-25T05:38:52.849Z,-3.28
2018-02-25T05:39:52.777Z,-3.25
2018-02-25T05:40:52.673Z,-3.18
2018-02-25T05:41:52.613Z,-3.15
2018-02-25T05:42:52.523Z,-3.23
2018-02-25T05:43:52.456Z,-3.23
2018-02-25T05:44:52.341Z,-3.18
2018-02-25T05:45:52.251Z,-3.18
2018-02-25T05:46:52.152Z,-3.23
2018-02-25T05:47:52.081Z,-3.30
2018-02-25T05:48:52.002Z,-3.34
2018-02-25T05:49:51.926Z,-3.30
2018-02-25T05:50:51.811Z,-3.19
2018-02-25T05:51:51.728Z,-3.21
2018-02-25T05:52:51.637Z,-3.23
2018-02-25T05:53:51.580Z,-3.16
2018-02-25T05:54:51.460Z,-3.22
2018-02-25T05:55:51.385Z,-3.19
2018-02-25T05:56:51.290Z,-3.19
2018-02-25T05:57:51.212Z,-3.10
2018-02-25T05:58:51.152Z,-3.18
2018-02-25T05:59:51.044Z,-3.23
2018-02-25T06:00:50.942Z,-3.13
2018-02-25T06:01:51.571Z,-3.23
2018-02-25T06:02:50.777Z,-3.30
2018-02-25T06:03:50.706Z,-3.44
2018-02-25T06:04:50.616Z,-3.37
2018-02-25T06:05:50.528Z,-3.52
2018-02-25T06:06:50.431Z,-3.40
2018-02-25T06:07:50.344Z,-3.44
2018-02-25T06:08:50.250Z,-3.40
2018-02-25T06:09:50.206Z,-3.36
2018-02-25T06:10:50.084Z,-3.34
2018-02-25T06:11:49.999Z,-3.19
2018-02-25T06:12:49.903Z,-3.36
2018-02-25T06:13:49.841Z,-3.39
2018-02-25T06:14:49.755Z,-3.22
2018-02-25T06:15:49.652Z,-3.26
2018-02-25T06:16:49.559Z,-3.34
2018-02-25T06:17:49.484Z,-3.36
2018-02-25T06:18:49.465Z,-3.37
2018-02-25T06:19:49.347Z,-3.40
2018-02-25T06:20:49.212Z,-3.51
2018-02-25T06:21:49.140Z,-3.52
2018-02-25T06:22:49.043Z,-3.61
2018-02-25T06:23:48.963Z,-3.55
2018-02-25T06:24:48.884Z,-3.51
2018-02-25T06:25:48.823Z,-3.52
2018-02-25T06:26:48.691Z,-3.54
2018-02-25T06:27:48.631Z,-3.55
2018-02-25T06:28:48.590Z,-3.61
2018-02-25T06:29:48.463Z,-3.49
2018-02-25T06:30:48.360Z,-3.54
2018-02-25T06:31:48.342Z,-3.58
2018-02-25T06:32:48.194Z,-3.46
2018-02-25T06:33:48.095Z,-3.51
2018-02-25T06:34:48.016Z,-3.47
2018-02-25T06:35:47.941Z,-3.52
2018-02-25T06:36:47.886Z,-3.59
2018-02-25T06:37:47.753Z,-3.51
2018-02-25T06:38:47.658Z,-3.51
2018-02-25T06:39:47.576Z,-3.64
2018-02-25T06:40:47.487Z,-3.64
2018-02-25T06:41:47.400Z,-3.55
2018-02-25T06:42:47.307Z,-2.97
2018-02-25T06:43:47.227Z,-2.18
2018-02-25T06:44:47.131Z,-2.33
2018-02-25T06:45:47.133Z,-1.98
2018-02-25T06:46:46.958Z,-1.98
2018-02-25T06:47:46.892Z,-2.01
2018-02-25T06:48:46.794Z,-2.21
2018-02-25T06:49:46.724Z,-2.44
2018-02-25T06:50:46.652Z,-2.00
2018-02-25T06:51:46.530Z,-1.46
2018-02-25T06:52:46.434Z,-1.02
2018-02-25T06:53:46.359Z,-0.96
2018-02-25T06:54:46.288Z,-1.56
2018-02-25T06:55:46.204Z,-1.75
2018-02-25T06:56:46.111Z,-2.14
2018-02-25T06:57:46.102Z,-2.58
2018-02-25T06:58:45.942Z,-2.87
2018-02-25T06:59:45.859Z,-2.83
2018-02-25T07:00:45.752Z,-2.87
2018-02-25T07:01:45.689Z,-2.74
2018-02-25T07:02:45.596Z,-2.35
2018-02-25T07:03:45.506Z,-2.62
2018-02-25T07:04:45.403Z,-2.79
2018-02-25T07:05:45.367Z,-2.77
2018-02-25T07:06:45.238Z,-2.55
2018-02-25T07:07:45.267Z,-1.51
2018-02-25T07:08:45.063Z,-1.57
2018-02-25T07:09:44.991Z,-1.57
2018-02-25T07:10:44.908Z,-1.92
2018-02-25T07:11:44.822Z,-2.33
2018-02-25T07:12:44.721Z,-1.98
2018-02-25T07:13:44.659Z,-2.19
2018-02-25T07:14:44.556Z,-2.38
2018-02-25T07:15:44.574Z,-2.74
2018-02-25T07:16:44.379Z,-2.35
2018-02-25T07:17:44.297Z,-1.75
2018-02-25T07:18:44.236Z,-1.46
2018-02-25T07:19:44.118Z,-1.41
2018-02-25T07:20:44.023Z,-1.67
2018-02-25T07:21:43.950Z,-1.72
2018-02-25T07:22:43.858Z,-1.82
2018-02-25T07:23:43.825Z,-2.43
2018-02-25T07:24:43.688Z,-2.29
2018-02-25T07:25:43.608Z,-2.28
2018-02-25T07:26:43.546Z,-2.61
2018-02-25T07:27:43.438Z,-2.32
2018-02-25T07:28:43.360Z,-2.00
2018-02-25T07:29:43.261Z,-1.98
2018-02-25T07:30:43.196Z,-2.04
2018-02-25T07:32:42.992Z,-2.01
2018-02-25T07:33:42.914Z,-2.13
2018-02-25T07:34:42.842Z,-2.19
2018-02-25T07:35:42.772Z,-2.00
2018-02-25T07:36:42.642Z,-2.07
2018-02-25T07:37:42.595Z,-1.96
2018-02-25T07:38:42.494Z,-2.07
2018-02-25T07:39:42.423Z,-2.44
2018-02-25T07:40:42.320Z,-2.40
2018-02-25T07:41:42.222Z,-2.26
2018-02-25T07:42:42.129Z,-2.29
2018-02-25T07:43:42.061Z,-1.93
2018-02-25T07:44:41.975Z,-1.80
2018-02-25T07:45:41.890Z,-1.72
2018-02-25T07:46:41.792Z,-1.67
2018-02-25T07:47:41.726Z,-1.59
2018-02-25T07:48:41.633Z,-1.65
2018-02-25T07:49:41.560Z,-1.54
2018-02-25T07:50:41.448Z,-1.93
2018-02-25T07:51:41.371Z,-2.10
2018-02-25T07:52:41.291Z,-2.10
2018-02-25T07:53:41.201Z,-1.85
2018-02-25T07:54:41.113Z,-1.39
2018-02-25T07:55:41.040Z,-0.24
2018-02-25T07:56:40.933Z,0.40
2018-02-25T07:57:40.848Z,1.47
2018-02-25T07:58:40.769Z,1.49
2018-02-25T07:59:40.697Z,1.67
2018-02-25T08:00:40.606Z,2.01
2018-02-25T08:01:40.515Z,3.15
2018-02-25T08:02:40.417Z,3.80
2018-02-25T08:03:40.366Z,4.74
2018-02-25T08:04:40.246Z,5.56
2018-02-25T08:05:40.302Z,5.30
2018-02-25T08:06:40.084Z,5.12
2018-02-25T08:07:40.024Z,4.71
2018-02-25T08:08:39.930Z,5.58
2018-02-25T08:09:39.834Z,6.17
2018-02-25T08:10:39.765Z,5.88
2018-02-25T08:11:39.696Z,5.81
2018-02-25T08:12:39.590Z,5.41
2018-02-25T08:13:39.562Z,5.56
2018-02-25T08:14:39.428Z,6.39
2018-02-25T08:15:39.357Z,6.35
2018-02-25T08:16:39.281Z,5.42
2018-02-25T08:17:39.173Z,5.63
2018-02-25T08:18:39.095Z,6.24
2018-02-25T08:19:39.049Z,5.74
2018-02-25T08:20:38.956Z,6.54
2018-02-25T08:21:38.866Z,6.72
2018-02-25T08:22:38.764Z,7.01
2018-02-25T08:23:38.691Z,6.93
2018-02-25T08:24:38.598Z,5.74
2018-02-25T08:25:38.571Z,5.93
2018-02-25T08:26:38.445Z,5.73
2018-02-25T08:27:38.367Z,4.83
2018-02-25T08:28:38.275Z,4.72
2018-02-25T08:29:38.200Z,5.58
2018-02-25T08:30:38.134Z,5.70
2018-02-25T08:31:38.064Z,4.97
2018-02-25T08:32:37.954Z,4.11
2018-02-25T08:33:37.880Z,3.71
2018-02-25T08:34:37.787Z,4.57
2018-02-25T08:35:37.761Z,5.87
2018-02-25T08:36:37.652Z,6.40
2018-02-25T08:37:37.559Z,7.41
2018-02-25T08:38:37.484Z,8.02
2018-02-25T08:39:37.427Z,8.78
2018-02-25T08:40:37.314Z,8.54
2018-02-25T08:41:37.256Z,8.82
2018-02-25T08:42:37.148Z,9.26
2018-02-25T08:43:37.077Z,9.34
2018-02-25T08:44:36.983Z,8.82
2018-02-25T08:45:36.921Z,8.79
2018-02-25T08:46:36.874Z,7.76
2018-02-25T08:47:36.747Z,7.55
2018-02-25T08:48:36.659Z,7.95
2018-02-25T08:49:36.597Z,7.81
2018-02-25T08:50:36.499Z,7.71
2018-02-25T08:51:36.456Z,7.08
2018-02-25T08:52:36.361Z,6.97
2018-02-25T08:53:36.275Z,6.94
2018-02-25T08:54:36.180Z,6.68
2018-02-25T08:55:36.128Z,6.97
2018-02-25T08:56:36.061Z,6.94
2018-02-25T08:57:35.952Z,6.45
2018-02-25T08:58:35.917Z,6.50
2018-02-25T08:59:35.795Z,6.58
2018-02-25T09:00:35.704Z,7.19
2018-02-25T09:01:35.641Z,7.41
2018-02-25T09:02:35.590Z,7.91
2018-02-25T09:03:35.511Z,7.94
2018-02-25T09:04:35.414Z,7.94
2018-02-25T09:05:35.354Z,7.55
2018-02-25T09:06:35.229Z,6.94
2018-02-25T09:07:35.187Z,7.19
2018-02-25T09:08:35.070Z,6.17
2018-02-25T09:09:34.998Z,6.82
2018-02-25T09:10:34.909Z,7.48
2018-02-25T09:11:34.864Z,7.73
2018-02-25T09:12:34.802Z,7.44
2018-02-25T09:13:34.682Z,8.22
2018-02-25T09:14:34.614Z,8.55
2018-02-25T09:15:34.534Z,7.47
2018-02-25T09:16:34.449Z,6.79
2018-02-25T09:17:34.399Z,6.94
2018-02-25T09:18:34.290Z,6.42
2018-02-25T09:19:34.213Z,6.65
2018-02-25T09:20:34.122Z,5.80
2018-02-25T09:21:34.058Z,5.67
2018-02-25T09:22:33.993Z,5.37
2018-02-25T09:23:33.936Z,5.63
2018-02-25T09:24:34.272Z,5.65
2018-02-25T09:25:33.730Z,6.55
2018-02-25T09:26:33.646Z,6.08
2018-02-25T09:27:33.577Z,6.35
2018-02-25T09:28:33.508Z,5.69
2018-02-25T09:29:33.415Z,6.01
2018-02-25T09:30:33.323Z,4.32
2018-02-25T09:31:33.259Z,5.51
2018-02-25T09:32:33.167Z,5.93
2018-02-25T09:33:33.115Z,6.71
2018-02-25T09:34:33.018Z,6.99
2018-02-25T09:35:32.936Z,6.96
2018-02-25T09:36:32.841Z,7.04
2018-02-25T09:37:32.786Z,7.05
2018-02-25T09:38:32.685Z,7.63
2018-02-25T09:39:32.647Z,7.79
2018-02-25T09:40:32.537Z,8.03
2018-02-25T09:41:32.481Z,7.70
2018-02-25T09:42:32.372Z,8.02
2018-02-25T09:43:32.333Z,8.58
2018-02-25T09:44:32.228Z,9.38
2018-02-25T09:45:32.139Z,8.34
2018-02-25T09:46:32.072Z,7.84
2018-02-25T09:47:31.979Z,5.04
2018-02-25T09:48:31.893Z,5.40
2018-02-25T09:49:31.855Z,6.55
2018-02-25T09:50:31.736Z,5.87
2018-02-25T09:51:31.674Z,6.82
2018-02-25T09:52:31.607Z,7.73
2018-02-25T09:53:31.531Z,8.58
2018-02-25T09:54:31.481Z,8.34
2018-02-25T09:55:31.379Z,8.43
2018-02-25T09:56:31.258Z,8.10
2018-02-25T09:57:31.235Z,7.74
2018-02-25T09:58:31.117Z,7.48
2018-02-25T09:59:31.032Z,7.96
2018-02-25T10:00:30.957Z,6.86
2018-02-25T10:01:30.879Z,6.53
2018-02-25T10:02:30.785Z,6.40
2018-02-25T10:03:30.712Z,6.55
2018-02-25T10:04:30.648Z,5.83
2018-02-25T10:05:30.560Z,6.87
2018-02-25T10:06:30.485Z,6.90
2018-02-25T10:07:30.449Z,6.69
2018-02-25T10:08:30.325Z,7.44
2018-02-25T10:09:30.273Z,6.96
2018-02-25T10:10:30.175Z,6.90
2018-02-25T10:11:30.114Z,7.26
2018-02-25T10:12:30.008Z,6.75
2018-02-25T10:13:29.934Z,6.91
2018-02-25T10:14:29.838Z,6.55
2018-02-25T10:15:29.796Z,5.87
2018-02-25T10:16:29.711Z,6.81
2018-02-25T10:17:29.715Z,6.82
2018-02-25T10:18:29.513Z,7.79
2018-02-25T10:19:29.517Z,7.99
2018-02-25T10:20:29.364Z,7.79
2018-02-25T10:21:29.373Z,7.60
2018-02-25T10:22:29.215Z,7.26
2018-02-25T10:23:29.251Z,7.66
2018-02-25T10:24:29.048Z,7.54
2018-02-25T10:25:29.058Z,7.55
2018-02-25T10:26:28.913Z,7.07
2018-02-25T10:27:28.819Z,8.14
2018-02-25T10:28:28.762Z,8.03
2018-02-25T10:29:28.770Z,8.02
2018-02-25T10:30:28.629Z,8.70
2018-02-25T10:31:28.598Z,8.43
2018-02-25T10:32:28.423Z,7.52
2018-02-25T10:34:28.263Z,8.09
2018-02-25T10:35:28.304Z,7.96
2018-02-25T10:36:28.135Z,8.54
2018-02-25T10:37:28.108Z,8.52
2018-02-25T10:38:27.948Z,8.75
2018-02-25T10:39:27.939Z,8.94
2018-02-25T10:40:27.787Z,8.49
2018-02-25T10:41:27.829Z,8.36
2018-02-25T10:42:27.684Z,8.91
2018-02-25T10:43:27.634Z,7.48
2018-02-25T10:44:27.496Z,6.97
2018-02-25T10:45:27.418Z,6.69
2018-02-25T10:46:27.325Z,7.08
2018-02-25T10:47:27.378Z,7.69
2018-02-25T10:48:27.167Z,7.84
2018-02-25T10:49:27.173Z,5.66
2018-02-25T10:50:27.007Z,6.43
2018-02-25T10:51:26.965Z,7.66
2018-02-25T10:52:26.857Z,7.58
2018-02-25T10:53:27.824Z,7.76
2018-02-25T10:54:26.693Z,8.39
2018-02-25T10:55:26.708Z,8.42
2018-02-25T10:56:26.535Z,7.52
2018-02-25T10:57:26.527Z,6.68
2018-02-25T10:58:26.407Z,6.89
2018-02-25T10:59:26.468Z,7.47
2018-02-25T11:00:26.239Z,7.66
2018-02-25T11:01:26.229Z,6.87
2018-02-25T11:02:26.063Z,7.45
2018-02-25T11:03:28.613Z,7.55
2018-02-25T11:04:25.923Z,6.76
2018-02-25T11:05:25.934Z,6.39
2018-02-25T11:06:25.941Z,5.87
2018-02-25T11:07:25.817Z,5.77
2018-02-25T11:08:25.623Z,5.78
2018-02-25T11:09:25.587Z,6.79
2018-02-25T11:10:25.449Z,6.57
2018-02-25T11:11:25.476Z,7.58
2018-02-25T11:12:25.288Z,7.48
2018-02-25T11:13:25.290Z,5.80
2018-02-25T11:14:25.131Z,5.41
2018-02-25T11:16:24.988Z,7.14
2018-02-25T11:17:25.021Z,7.12
2018-02-25T11:18:24.847Z,6.72
2018-02-25T11:19:24.811Z,6.69
2018-02-25T11:20:24.657Z,6.90
2018-02-25T11:21:24.607Z,7.79
2018-02-25T11:22:24.496Z,7.33
2018-02-25T11:23:24.469Z,7.92
2018-02-25T11:24:24.438Z,7.81
2018-02-25T11:25:24.328Z,8.79
2018-02-25T11:26:24.274Z,8.80
2018-02-25T11:27:24.138Z,9.24
2018-02-25T11:28:24.068Z,9.37
2018-02-25T11:29:24.148Z,9.96
2018-02-25T11:30:23.874Z,9.58
2018-02-25T11:31:23.871Z,8.46
2018-02-25T11:32:23.750Z,8.79
2018-02-25T11:33:23.806Z,9.04
2018-02-25T11:34:23.622Z,8.60
2018-02-25T11:35:23.600Z,8.54
2018-02-25T11:36:23.390Z,8.09
2018-02-25T11:37:23.396Z,7.96
2018-02-25T11:38:23.240Z,7.24
2018-02-25T11:39:23.367Z,6.81
2018-02-25T11:40:23.099Z,7.00
2018-02-25T11:41:23.105Z,7.08
2018-02-25T11:42:22.992Z,6.81
2018-02-25T11:43:22.920Z,7.26
2018-02-25T11:44:22.802Z,6.83
2018-02-25T11:45:22.714Z,6.45
2018-02-25T11:46:22.626Z,5.62
2018-02-25T11:47:22.546Z,5.98
2018-02-25T11:48:22.457Z,7.18
2018-02-25T11:49:22.386Z,7.48
2018-02-25T11:50:22.322Z,7.79
2018-02-25T11:51:22.343Z,7.18
2018-02-25T11:52:22.252Z,7.63
2018-02-25T11:53:22.153Z,7.07
2018-02-25T11:54:22.010Z,7.52
2018-02-25T11:55:22.085Z,8.13
2018-02-25T11:56:21.845Z,8.20
2018-02-25T11:57:21.880Z,8.07
2018-02-25T11:58:21.680Z,6.97
2018-02-25T11:59:21.677Z,6.99
2018-02-25T12:00:21.523Z,7.63
2018-02-25T12:01:21.488Z,7.70
2018-02-25T12:02:21.387Z,7.48
2018-02-25T12:03:21.399Z,7.47
2018-02-25T12:04:21.210Z,6.90
2018-02-25T12:05:21.337Z,7.45
2018-02-25T12:06:21.050Z,6.64
2018-02-25T12:07:21.033Z,7.37
2018-02-25T12:08:20.886Z,7.19
2018-02-25T12:09:20.961Z,7.95
2018-02-25T12:10:20.750Z,8.22
2018-02-25T12:11:20.763Z,6.65
2018-02-25T12:12:20.569Z,6.21
2018-02-25T12:13:20.541Z,6.93
2018-02-25T12:14:20.414Z,6.79
2018-02-25T12:15:20.468Z,7.62
2018-02-25T12:16:20.272Z,8.22
2018-02-25T12:17:20.270Z,8.22
2018-02-25T12:18:20.207Z,7.58
2018-02-25T12:19:20.076Z,7.74
2018-02-25T12:20:19.951Z,6.96
2018-02-25T12:21:19.923Z,6.96
2018-02-25T12:22:19.785Z,6.19
2018-02-25T12:23:19.793Z,6.65
2018-02-25T12:24:19.630Z,7.18
2018-02-25T12:25:19.620Z,7.21
2018-02-25T12:26:19.506Z,7.11
2018-02-25T12:27:19.508Z,7.36
2018-02-25T12:28:19.311Z,6.78
2018-02-25T12:29:19.258Z,6.08
2018-02-25T12:30:19.163Z,5.63
2018-02-25T12:31:19.109Z,5.20
2018-02-25T12:32:19.043Z,3.90
2018-02-25T12:33:18.957Z,3.35
2018-02-25T12:34:18.837Z,3.16
2018-02-25T12:35:18.771Z,3.10
2018-02-25T12:36:18.675Z,2.94
2018-02-25T12:37:18.625Z,2.68
2018-02-25T12:38:18.624Z,2.19
2018-02-25T12:39:18.456Z,2.40
2018-02-25T12:40:18.352Z,2.56
2018-02-25T12:41:18.275Z,2.79
2018-02-25T12:42:18.218Z,2.69
2018-02-25T12:43:18.120Z,2.65
2018-02-25T12:44:18.024Z,2.68
2018-02-25T12:45:17.955Z,2.51
2018-02-25T12:46:17.854Z,2.55
2018-02-25T12:47:17.807Z,2.66
2018-02-25T12:48:17.719Z,2.73
2018-02-25T12:49:17.628Z,2.47
2018-02-25T12:50:17.533Z,2.55
2018-02-25T12:51:17.467Z,2.53
2018-02-25T12:52:17.373Z,2.76
2018-02-25T12:53:17.317Z,2.65
2018-02-25T12:54:17.198Z,2.68
2018-02-25T12:55:17.139Z,2.77
2018-02-25T12:56:17.032Z,2.59
2018-02-25T12:57:16.959Z,2.56
2018-02-25T12:58:16.935Z,2.47
2018-02-25T12:59:16.796Z,2.56
2018-02-25T13:00:16.706Z,2.62
2018-02-25T13:01:16.627Z,2.90
2018-02-25T13:02:16.555Z,2.94
2018-02-25T13:03:16.489Z,2.87
2018-02-25T13:04:16.385Z,2.59
2018-02-25T13:05:16.303Z,2.79